Archival Weather

Luke Afb

Glendale, Arizona (KLUF)

Report from: Friday, April 19, 2024 4:55 PM MST
Current time: Monday, June 24, 2024 4:20 AM MST

Current weather – Weather history – Daily summaries
Weather forecast

Temperature32.9°C (91.2°F)
Heat index30.5°C (87.0°F)
Dew point-9.5°C (14.9°F)
Winds 8 kts (4.1 m/s, 9.2 mph) Southwest (230°)
Visibility10 mi. (16.1 km)
Clouds Sky clear
Altimeter29.72 in.Hg (1006 mB)
Relative humidity6 %
Density altitude2,367 ft. (722 m)
Sea-level pressure100.5 kPa (1005 mB, 29.68 in.Hg)
Max temp last 6 hours33.2°C (91.8°F)
Min temp last 6 hours28.3°C (82.9°F)
Remarks Fully automated report
System requires maintenance
Automated weather observing station with precipitation discriminator
Pressure falling
Flight conditions Visual Meteorological Conditions
Raw dataKLUF 192355Z AUTO 23008KT 10SM CLR 33/M09 A2972 RMK AO2 SLP052 T03291095 10332 20283 57019 $
An error has occurred. This application may no longer respond until reloaded. Reload 🗙